Aérodrome :







RETROUVEZ-NOUS SUR...

 
LOGIN :

S'inscrire | Disclaimer

   EN    FR    IT 

 









Légende :    VFR   VFR Marginal   IFR   IFR Intensif   IFR Très Intensif
Visi : 
Plafond : 
>= 8 km
>= 3000ft
5 à 8 km
1000 à 3000 ft
1500m à 5 km
500 à 1000 ft
800 à 1500m
200 à 500 ft
< 800m
< 200 ft
Symboles :   Orages  Brouillard  Fortes neiges  Fortes précipitations  Vent > 20 kt






- Altitude de l'aérodrome : 626 ft


KCAR - Caribou Municipal

DERNIER METAR :
  • 150427Z AUTO 08006KT 3/4SM -RA BR VV004 03/03 A2903 RMK AO2 PRESFR P0003 T00330028

METARs EXPIRÉS :
  • 150415Z AUTO 09005KT 1 1/4SM -RA BR OVC005 03/03 A2906 RMK AO2 P0002 T00330028
  • 150354Z AUTO 07007KT 3/4SM -RA BR VV003 03/02 A2908 RMK AO2 RAB32 PRESFR SLP855 P0001 T00330022
  • 150316Z AUTO 07006KT 1 1/4SM BR OVC003 03/02 A2912 RMK AO2 P0001 T00280022
  • 150254Z AUTO 08008KT 3/4SM BR VV003 03/02 A2914 RMK AO2 RAB12E22 SLP874 P0000 60000 T00280022 55040
  • 150244Z AUTO 07009KT 1SM BR VV004 03/02 A2915 RMK AO2 RAB12E22 PRESFR P0000 T00280022
  • 150225Z AUTO 07005KT 1 1/2SM BR OVC004 03/02 A2919 RMK AO2 RAB12E22 P0000 T00280022
  • 150154Z AUTO 07005KT 1 3/4SM BR OVC004 03/02 A2921 RMK AO2 SLP899 T00280022

TAF KCAR
Valide du 15 à 02h jusqu'au 16 à 00h UTC


150131Z 1502/1524 06007KT 2SM -RA BR OVC003
FM150400 14011G19KT 5SM -RA BR OVC003 WS020/17040KT
FM151100 21012G20KT 5SM -SHRA OVC009
FM151200 22013G24KT P6SM VCSH OVC015
FM151800 24021G35KT P6SM VCSH OVC030
FM152100 27022G39KT P6SM BKN035



MET'MAP, la Météo Aéronautique d'un coup d'oeil ! - Copyright ORBIFLY Décembre 2007 - Disclaimer

ORBIFLY MET'MAP TEAM :

Programmation & Développement : Alexandra Zaïnal
Sur une idée originale de : Baudouin d'Aumeries
Assistance à la programmation : Marc-Olivier Méhu
Soutien technique & logistique : Manuel Goepfert

Contact : metmap@orbifly.com




SOURCES & CREDITS :

   NOAA